Westgard — PDBQ — position and weather

sailwx.info

Track history (hours):
 
Tides and Currents Weather Stations Pressure Air Temp Water Temp Dewpoint Dewpoint Depression Visibility Wind Speed Wind Dir Waves Ship Positions

Westgard

Last reported at 2017-Mar-28 08:26 UTC. Time now 2017-Mar-28 13:58 UTC.
Position N 50°20' E 000°09'.

Length 89 m; draft 3.4 m.

Type: Ship. MMSI: 246457000.

Date/timePositionNaut miles runAvg speedWind from/ knotsBaromVisibWave heightAir tempDewpointWater temp
2017-Mar-28 08:26N 50°20' E 000°09'1112.6
2017-Mar-28 07:33N 50°17' W 000°07'1612.0
2017-Mar-28 06:13N 50°13' W 000°31'1011.0
2017-Mar-28 05:21N 50°10' W 000°46'8 9.7
2017-Mar-28 04:33N 50°08' W 000°58'8 8.3
2017-Mar-28 03:33N 50°06' W 001°10'7 7.2
2017-Mar-28 02:33N 50°05' W 001°21'6 6.4
2017-Mar-28 01:34N 50°03' W 001°31'7 6.6
2017-Mar-28 00:33N 50°01' W 001°40'8 7.8
2017-Mar-27 23:33N 49°58' W 001°52'10 9.5
2017-Mar-27 22:33N 49°56' W 002°06'1611.4
2017-Mar-27 21:08N 49°52' W 002°31'711.8
2017-Mar-27 20:33N 49°50' W 002°41'1211.7
2017-Mar-27 19:33N 49°46' W 002°58'1211.8
2017-Mar-27 18:33N 49°40' W 003°13'8010.7
2017-Mar-27 11:04N 48°59' W 004°59'4 8.4
2017-Mar-27 10:33N 48°57' W 005°05'8 7.8
2017-Mar-27 09:33N 48°53' W 005°15'8 7.7
2017-Mar-27 08:33N 48°49' W 005°25'8 7.9
2017-Mar-27 07:32N 48°45' W 005°36'  
Track history (hours):
 
Tides and Currents Weather Stations Pressure Air Temp Water Temp Dewpoint Dewpoint Depression Visibility Wind Speed Wind Dir Waves Ship Positions

Westgard

Last reported at 2017-Mar-28 08:26 UTC. Time now 2017-Mar-28 13:58 UTC.
Position N 50°20' E 000°09'.

Length 89 m; draft 3.4 m.

Type: Ship. MMSI: 246457000.

Date/timePositionNaut miles runAvg speedWind from/ knotsBaromVisibWave heightAir tempDewpointWater temp
2017-Mar-28 08:26N 50°20' E 000°09'1112.6
2017-Mar-28 07:33N 50°17' W 000°07'1612.0
2017-Mar-28 06:13N 50°13' W 000°31'1011.0
2017-Mar-28 05:21N 50°10' W 000°46'8 9.7
2017-Mar-28 04:33N 50°08' W 000°58'8 8.3
2017-Mar-28 03:33N 50°06' W 001°10'7 7.2
2017-Mar-28 02:33N 50°05' W 001°21'6 6.4
2017-Mar-28 01:34N 50°03' W 001°31'7 6.6
2017-Mar-28 00:33N 50°01' W 001°40'8 7.8
2017-Mar-27 23:33N 49°58' W 001°52'10 9.5
2017-Mar-27 22:33N 49°56' W 002°06'1611.4
2017-Mar-27 21:08N 49°52' W 002°31'711.8
2017-Mar-27 20:33N 49°50' W 002°41'1211.7
2017-Mar-27 19:33N 49°46' W 002°58'1211.8
2017-Mar-27 18:33N 49°40' W 003°13'8010.7
2017-Mar-27 11:04N 48°59' W 004°59'4 8.4
2017-Mar-27 10:33N 48°57' W 005°05'8 7.8
2017-Mar-27 09:33N 48°53' W 005°15'8 7.7
2017-Mar-27 08:33N 48°49' W 005°25'8 7.9
2017-Mar-27 07:32N 48°45' W 005°36'  

Dump ship's entire track history